AirNav   Air Wisconsin pilot careers
 
 731 users online  

KJQD
(formerly 7K4)
Ohio County Airport
Hartford, Kentucky, USA

GOING TO HARTFORD?


FAA INFORMATION EFFECTIVE 29 MARCH 2018

Location

FAA Identifier: JQD
Lat/Long: 37-27-30.8000N / 086-50-59.4000W
37-27.513333N / 086-50.990000W
37.4585556 / -86.8498333
(estimated)
Elevation: 536.8 ft. / 163.6 m (surveyed)
Variation: 02W (2000)
From city: 3 miles NE of HARTFORD, KY
Time zone: UTC -5 (UTC -6 during Standard Time)
Zip code: 42320

Airport Operations

Airport use: Open to the public
Activation date: 06/1984
Control tower: no
ARTCC: INDIANAPOLIS CENTER
FSS: LOUISVILLE FLIGHT SERVICE STATION
NOTAMs facility: LOU (NOTAM-D service available)
Attendance: 0645-1500
FOR AFT HRS SVC CALL 270-256-2303.
Wind indicator: lighted
Segmented circle: yes
Lights: ACTVT MIRL RY 03/21; PAPI RYS 03 & 21 DUSK-DAWN - CTAF.
Beacon: white-green (lighted land airport)
Operates sunset to sunrise.

Airport Communications

CTAF/UNICOM: 122.8
WX AWOS-3PT: 132.1 (270-298-7936)
EVANSVILLE APPROACH: 124.025
EVANSVILLE DEPARTURE: 124.025
  • APCH/DEP SVC PRVDD BY INDIANAPOLIS ARTCC 0N FREQS 128.3/284.65 (EVANSVILLE RCAG) WHEN EVANSVILLE APCH CTL CLSD.

Nearby radio navigation aids

VOR radial/distance  VOR name  Freq  Var
CCTr078/20.2CENTRAL CITY VORTAC109.8001W
OWBr143/22.8OWENSBORO VOR/DME108.6004W
BWGr327/37.3BOWLING GREEN VORTAC117.9002E
MYSr229/(38.8)MYSTIC VOR108.2001W

Airport Services

Fuel available: 100LL JET-A+
Parking: hangars and tiedowns
Airframe service: MAJOR
Powerplant service: MAJOR
Bulk oxygen: HIGH/LOW

Runway Information

Runway 3/21

Dimensions: 5000 x 75 ft. / 1524 x 23 m
Surface: asphalt, in good condition
Weight bearing capacity: 
Single wheel: 20.0
Double wheel: 50.0
Runway edge lights: medium intensity
Runway edge markings: RWY 3/21 MARKINGS FADED
RUNWAY 3  RUNWAY 21
Latitude: 37-27.138757N37-27.887438N
Longitude: 086-51.205115W086-50.773385W
Elevation: 530.3 ft.536.8 ft.
Traffic pattern: leftleft
Runway heading: 027 magnetic, 025 true207 magnetic, 205 true
Markings: nonprecision, in poor conditionnonprecision, in poor condition
Visual slope indicator: 2-light PAPI on left (3.00 degrees glide path)2-light PAPI on left (3.50 degrees glide path)
Runway end identifier lights: yesyes
Touchdown point: yes, no lightsyes, no lights
Obstructions: 11 ft. trees, 586 ft. from runway, 25 ft. left of centerline, 35:1 slope to clear71 ft. trees, 1305 ft. from runway, 413 ft. right of centerline, 15:1 slope to clear

Airport Ownership and Management from official FAA records

Ownership: Publicly-owned
Owner: OHIO COUNTY AIRPORT BOARD
2260 COUNTRY CLUB RD
HARTFORD, KY 42347
Phone 270-298-3500
Manager: CHARLES BULLINGTON
2260 COUNTRY CLUB RD
HARTFORD, KY 42347
Phone 270-298-3500
ADDTL PHONE 270-925-0358

Airport Operational Statistics

Aircraft based on the field: 10
Single engine airplanes: 10
    
Aircraft operations: avg 22/day *
56% transient general aviation
38% local general aviation
4% air taxi
2% military
* for 12-month period ending 21 November 2016

Instrument Procedures

NOTE: All procedures below are presented as PDF files. If you need a reader for these files, you should download the free Adobe Reader.

NOT FOR NAVIGATION. Please procure official charts for flight.
FAA instrument procedures published for use from 29 March 2018 at 0901Z to 26 April 2018 at 0900Z.

 
IAPs - Instrument Approach Procedures
RNAV (GPS) RWY 03   download (211KB)
RNAV (GPS) RWY 21   download (229KB)
VOR/DME-A   download (150KB)
NOTE: Special Alternate Minimums apply   download (27KB)
NOTE: Special Take-Off Minimums/Departure Procedures apply   download (126KB)

Other nearby airports with instrument procedures:

M21 - Muhlenberg County Airport (20 nm SW)
KOWB - Owensboro-Daviess County Regional Airport (23 nm NW)
2I0 - Madisonville Regional Airport (27 nm W)
KY8 - Hancock County Airport-Ron Lewis Field (30 nm N)
KTEL - Perry County Municipal Airport (34 nm N)
 
Loc | Ops | Rwys | IFR | FBO | Links
Com | Nav | Svcs | Stats | Notes

AirNav Hotels Sweepstakes
 
Area around KJQD (Ohio County Airport)
 
Road maps at: MapQuest Bing Google
 
Aerial photo
WARNING: Photo may not be current or correct
Aerial photo of KJQD (Ohio County Airport)
Do you have a better or more recent aerial photo of Ohio County Airport that you would like to share? If so, please send us your photo.

 
Sectional chart

 
Airport distance calculator
Flying to Ohio County Airport? Find the distance to fly.

From to KJQD

Sunrise and sunset
Times for 24-Apr-2018
 Local
(UTC-5)
 Zulu
(UTC)
Morning civil twilight05:3410:34
Sunrise06:0211:02
Sunset19:3000:30
Evening civil twilight19:5700:57

Current date and time
Zulu (UTC)  24-Apr-2018 11:54:30
Local (UTC-5)  24-Apr-2018 06:54:30
 
METAR
KOWB 
22nm NW 
241056Z 02004KT 7SM OVC013 13/12 A2992 RMK AO2 SLP142 T01330117
KKY8 
30nm N 
241135Z AUTO 02003KT 10SM OVC012 13/13 A2992 RMK A01
KBWG 
36nm SE 
241101Z AUTO 00000KT 10SM BKN007 OVC012 13/13 A2990 RMK AO2 T01330128
KI19 
41nm NW 
241135Z AUTO 11010KT 10SM SCT042 OVC049 11/09 A3002 RMK AO2 T01130093
TAF
KOWB 
22nm NW 
240854Z 2409/2506 03005KT P6SM VCSH OVC015 FM241500 34010KT P6SM OVC010 FM250200 34005KT P6SM BKN015 FM250400 33005KT P6SM BKN025
NOTAMs
Click for the latest NOTAMs
NOTAMs are issued by the DoD/FAA and will open in a separate window not controlled by AirNav.

 

 
 

Would you like to see your business listed on this page?

 If your business provides an interesting product or service to pilots, flight crews, aircraft, or users of the Ohio County Airport, you should consider listing it here.  To start the listing process, click on the button below
 
Add a business
 

Other Pages about Ohio County Airport

Update a link
 
Copyright © AirNav, LLC. All rights reserved. Privacy Policy  Contact